createdAt,value
2022-10-28T00:03:53.684Z,3.90
2022-10-28T00:09:26.031Z,4.05
2022-10-28T00:14:57.870Z,4.05
2022-10-28T00:20:29.731Z,4.15
2022-10-28T00:26:01.375Z,4.25
2022-10-28T00:31:33.319Z,4.35
2022-10-28T00:37:05.115Z,4.50
2022-10-28T00:42:36.557Z,4.50
2022-10-28T00:48:08.434Z,4.70
2022-10-28T00:53:40.357Z,4.80
2022-10-28T00:59:12.037Z,4.95
2022-10-28T01:04:43.911Z,4.95
2022-10-28T01:10:16.070Z,5.10
2022-10-28T01:15:47.976Z,5.10
2022-10-28T01:21:19.779Z,5.20
2022-10-28T01:26:51.370Z,5.30
2022-10-28T01:32:23.277Z,5.30
2022-10-28T01:37:55.647Z,5.50
2022-10-28T01:43:27.011Z,5.55
2022-10-28T01:48:58.719Z,5.60
2022-10-28T01:54:30.611Z,5.80
2022-10-28T02:00:02.493Z,5.90
2022-10-28T02:05:34.406Z,5.95
2022-10-28T02:11:06.432Z,6.10
2022-10-28T02:16:38.143Z,6.15
2022-10-28T02:22:09.733Z,6.20
2022-10-28T02:27:41.854Z,6.40
2022-10-28T02:33:13.984Z,6.55
2022-10-28T02:38:45.843Z,6.60
2022-10-28T02:44:18.123Z,6.65
2022-10-28T02:49:50.368Z,6.70
2022-10-28T02:55:22.623Z,6.75
2022-10-28T03:00:54.157Z,6.75
2022-10-28T03:11:57.541Z,7.00
2022-10-28T03:17:29.522Z,7.20
2022-10-28T03:23:01.202Z,7.30
2022-10-28T03:28:33.042Z,7.35
2022-10-28T03:34:04.735Z,7.60
2022-10-28T03:39:36.464Z,7.65
2022-10-28T03:45:08.245Z,7.80
2022-10-28T03:50:40.081Z,7.90
2022-10-28T03:56:12.171Z,8.05
2022-10-28T04:01:44.130Z,8.20
2022-10-28T04:09:36.773Z,1.00
2022-10-28T04:15:08.209Z,0.98
2022-10-28T04:20:40.236Z,0.98
2022-10-28T04:26:11.930Z,1.23
2022-10-28T04:31:45.471Z,0.98
2022-10-28T04:37:20.340Z,1.14
2022-10-28T04:42:48.392Z,1.40
2022-10-28T04:48:20.160Z,1.22
2022-10-28T04:53:51.858Z,1.42
2022-10-28T04:59:23.872Z,1.67
2022-10-28T05:04:55.792Z,1.87
2022-10-28T05:10:27.488Z,1.80
2022-10-28T05:15:59.291Z,1.81
2022-10-28T05:21:31.173Z,1.89
2022-10-28T05:27:02.960Z,1.89
2022-10-28T05:32:34.496Z,2.08
2022-10-28T05:38:06.261Z,2.02
2022-10-28T05:43:38.073Z,2.12
2022-10-28T05:49:09.735Z,2.06
2022-10-28T05:54:41.791Z,2.10
2022-10-28T06:00:13.279Z,2.30
2022-10-28T06:05:45.153Z,2.50
2022-10-28T06:11:15.477Z,2.60
2022-10-28T06:16:47.340Z,2.65
2022-10-28T06:22:19.150Z,2.75
2022-10-28T06:27:51.183Z,2.80
2022-10-28T06:33:22.583Z,2.80
2022-10-28T06:38:54.473Z,2.80
2022-10-28T06:44:26.111Z,2.90
2022-10-28T06:49:59.479Z,3.00
2022-10-28T06:55:31.435Z,3.15
2022-10-28T07:01:03.055Z,3.40
2022-10-28T07:06:35.002Z,3.45
2022-10-28T07:12:06.577Z,3.60
2022-10-28T07:17:38.546Z,3.75
2022-10-28T07:23:10.244Z,3.90
2022-10-28T07:28:42.126Z,3.95
2022-10-28T07:34:22.084Z,4.10
2022-10-28T07:39:51.096Z,4.20
2022-10-28T07:45:22.627Z,4.25
2022-10-28T07:51:00.160Z,4.30
2022-10-28T07:56:31.803Z,4.35
2022-10-28T08:02:03.788Z,4.50
2022-10-28T08:07:38.452Z,4.60
2022-10-28T08:13:07.141Z,4.75
2022-10-28T08:18:38.961Z,4.80
2022-10-28T08:24:10.658Z,4.85
2022-10-28T08:29:43.731Z,4.95
2022-10-28T08:35:15.214Z,5.05
2022-10-28T08:40:47.297Z,5.05
2022-10-28T08:46:18.792Z,5.30
2022-10-28T08:51:50.149Z,5.30
2022-10-28T08:57:21.908Z,5.35
2022-10-28T09:02:53.557Z,5.45
2022-10-28T09:08:25.288Z,5.55
2022-10-28T09:13:57.175Z,5.55
2022-10-28T09:19:28.789Z,5.75
2022-10-28T09:25:00.844Z,5.80
2022-10-28T09:30:32.443Z,6.05
2022-10-28T09:36:04.179Z,6.15
2022-10-28T09:41:36.478Z,6.15
2022-10-28T09:47:08.430Z,6.25
2022-10-28T09:52:40.133Z,6.30
2022-10-28T09:58:11.780Z,6.40
2022-10-28T10:03:43.516Z,6.50
2022-10-28T10:09:15.569Z,6.60
2022-10-28T10:14:53.262Z,6.70
2022-10-28T10:20:24.909Z,6.80
2022-10-28T10:25:56.583Z,7.00
2022-10-28T10:31:28.321Z,7.05
2022-10-28T10:37:00.265Z,7.20
2022-10-28T10:42:31.944Z,7.20
2022-10-28T10:48:03.689Z,7.35
2022-10-28T10:53:35.542Z,7.60
2022-10-28T10:59:07.077Z,7.80
2022-10-28T11:04:38.664Z,7.85
2022-10-28T11:10:10.571Z,7.85
2022-10-28T11:15:42.124Z,7.95
2022-10-28T11:21:14.001Z,8.15
2022-10-28T11:26:45.645Z,8.30
2022-10-28T11:32:17.467Z,8.50
2022-10-28T11:37:49.513Z,8.75
2022-10-28T11:43:21.639Z,8.80
2022-10-28T11:48:53.409Z,8.85
2022-10-28T11:54:25.312Z,8.95
2022-10-28T11:59:57.051Z,9.05
2022-10-28T12:05:28.809Z,9.20
2022-10-28T12:11:00.408Z,9.20
2022-10-28T12:16:32.464Z,9.20
2022-10-28T12:22:04.211Z,9.25
2022-10-28T12:27:35.634Z,9.35
2022-10-28T12:33:07.180Z,9.55
2022-10-28T12:38:38.911Z,9.60
2022-10-28T12:44:11.405Z,9.60
2022-10-28T12:49:43.079Z,9.70
2022-10-28T13:00:46.746Z,10.00
2022-10-28T13:06:18.549Z,10.15
2022-10-28T13:11:50.345Z,10.20
2022-10-28T13:17:22.092Z,10.35
2022-10-28T13:22:53.886Z,10.50
2022-10-28T13:28:25.763Z,10.65
2022-10-28T13:33:57.640Z,10.85
2022-10-28T13:39:29.983Z,10.90
2022-10-28T13:45:02.401Z,11.05
2022-10-28T13:50:40.299Z,11.10
2022-10-28T13:56:12.095Z,11.10
2022-10-28T14:01:44.354Z,11.25
2022-10-28T14:07:15.955Z,11.35
2022-10-28T14:12:48.057Z,11.40
2022-10-28T14:18:42.284Z,11.40
2022-10-28T14:23:52.281Z,11.50
2022-10-28T14:29:24.011Z,11.55
2022-10-28T14:34:55.922Z,11.75
2022-10-28T14:45:57.451Z,11.85
2022-10-28T14:48:20.386Z,1.00
2022-10-28T14:53:52.373Z,1.98
2022-10-28T14:59:23.974Z,1.97
2022-10-28T15:04:55.424Z,1.97
2022-10-28T15:10:29.515Z,2.36
2022-10-28T15:16:04.654Z,2.12
2022-10-28T15:21:33.091Z,1.96
2022-10-28T15:32:36.804Z,2.29
2022-10-28T15:38:08.454Z,2.45
2022-10-28T15:43:40.137Z,2.23
2022-10-28T15:49:11.822Z,2.12
2022-10-28T15:54:43.769Z,2.11
2022-10-28T16:00:15.403Z,2.03
2022-10-28T16:05:47.256Z,1.96
2022-10-28T16:11:20.818Z,2.02
2022-10-28T16:16:52.613Z,1.96
2022-10-28T16:22:24.397Z,2.07
2022-10-28T16:27:56.622Z,2.06
2022-10-28T16:33:30.125Z,2.30
2022-10-28T16:39:02.204Z,2.35
2022-10-28T16:44:34.226Z,2.40
2022-10-28T16:55:41.237Z,2.45
2022-10-28T17:06:48.400Z,2.65
2022-10-28T17:20:27.877Z,4.00
2022-10-28T17:31:35.717Z,2.95
2022-10-28T17:37:07.721Z,2.95
2022-10-28T17:42:45.658Z,2.55
2022-10-28T17:48:17.472Z,2.45
2022-10-28T17:53:49.415Z,2.24
2022-10-28T17:59:27.166Z,2.08
2022-10-28T18:04:59.037Z,1.96
2022-10-28T18:10:36.694Z,1.86
2022-10-28T18:16:08.427Z,1.87
2022-10-28T18:21:40.322Z,1.80
2022-10-28T18:27:12.084Z,1.73
2022-10-28T18:32:43.481Z,1.68
2022-10-28T18:38:15.569Z,1.89
2022-10-28T18:43:48.870Z,2.02
2022-10-28T18:49:20.355Z,2.08
2022-10-28T18:54:51.840Z,2.01
2022-10-28T19:00:23.971Z,1.96
2022-10-28T19:05:55.520Z,1.95
2022-10-28T19:11:27.678Z,1.95
2022-10-28T19:16:59.467Z,1.95
2022-10-28T19:22:30.936Z,2.00
2022-10-28T19:30:23.558Z,5.90
2022-10-28T19:35:56.705Z,4.43
2022-10-28T19:41:28.612Z,3.91
2022-10-28T19:47:03.243Z,3.18
2022-10-28T19:52:35.179Z,2.74
2022-10-28T19:58:06.951Z,2.62
2022-10-28T20:03:39.399Z,2.66
2022-10-28T20:09:10.386Z,2.45
2022-10-28T20:14:42.545Z,2.61
2022-10-28T20:20:14.592Z,2.45
2022-10-28T20:25:46.782Z,2.49
2022-10-28T20:31:18.779Z,2.37
2022-10-28T20:36:50.358Z,2.33
2022-10-28T20:53:25.708Z,2.51
2022-10-28T20:58:57.637Z,2.48
2022-10-28T21:04:29.412Z,2.45
2022-10-28T21:10:01.206Z,2.42
2022-10-28T21:15:33.135Z,2.45
2022-10-28T21:21:04.892Z,2.70
2022-10-28T21:26:37.779Z,2.75
2022-10-28T21:32:15.322Z,2.95
2022-10-28T21:37:48.220Z,3.00
2022-10-28T21:43:25.725Z,3.00
2022-10-28T21:48:57.798Z,3.20
2022-10-28T21:54:29.573Z,3.40
2022-10-28T22:00:01.627Z,3.55
2022-10-28T22:05:33.665Z,3.60
2022-10-28T22:11:05.300Z,3.60
2022-10-28T22:16:37.085Z,3.65
2022-10-28T22:22:08.914Z,3.70
2022-10-28T22:27:40.659Z,3.80
2022-10-28T22:33:12.200Z,3.80
2022-10-28T22:38:43.921Z,3.85
2022-10-28T22:44:15.839Z,4.00
2022-10-28T22:49:48.842Z,4.10
2022-10-28T22:55:20.598Z,4.15
2022-10-28T23:00:52.263Z,4.20
2022-10-28T23:06:24.339Z,4.25
2022-10-28T23:11:56.086Z,4.35
2022-10-28T23:17:28.049Z,4.45
2022-10-28T23:22:59.898Z,4.60
2022-10-28T23:28:31.501Z,4.70
2022-10-28T23:34:03.285Z,4.85
2022-10-28T23:39:34.899Z,5.00
2022-10-28T23:45:06.541Z,5.10
2022-10-28T23:50:38.457Z,5.25
2022-10-28T23:56:10.278Z,5.35
